This is the latest recevied weather packets stored in our database for station/object LROD. If no packets are shown the sender has not sent any weather packets the latest 10 day(s).
| Time | Temp. | Humidity | Pressure | Rain* | Wind** | Luminosity | Snow |
|---|---|---|---|---|---|---|---|
| 1777886309 | 21.11° C | 31% | 1020 hPa | - | - | - | - |
| 1777885409 | 21.11° C | 31% | 1020 hPa | - | - | - | - |
| 1777884538 | 20° C | 33% | 1020 hPa | - | - | - | - |
| 1777883610 | 20° C | 33% | 1020 hPa | - | - | - | - |
| 1777882709 | 18.89° C | 35% | 1020 hPa | - | - | - | - |
| 1777881809 | 18.89° C | 35% | 1020 hPa | - | - | - | - |
| 1777880910 | 17.78° C | 40% | 1020 hPa | - | - | - | - |
| 1777880009 | 17.78° C | 40% | 1020 hPa | - | - | - | - |
| 1777879110 | 18.89° C | 37% | 1020 hPa | - | - | - | - |
| 1777878210 | 18.89° C | 37% | 1020 hPa | - | - | - | - |
| 1777877309 | 16.11° C | 45% | 1020 hPa | - | - | - | - |
| 1777876410 | 16.11° C | 45% | 1020 hPa | - | - | - | - |
| 1777875510 | 13.89° C | 48% | 1020 hPa | - | - | - | - |
| 1777874610 | 13.89° C | 48% | 1020 hPa | - | - | - | - |
| 1777873710 | 12.22° C | 54% | 1020 hPa | - | - | - | - |
| 1777872811 | 12.22° C | 54% | 1020 hPa | - | - | - | - |
| 1777871910 | 10° C | 62% | 1020 hPa | - | - | - | - |
| 1777871019 | 10° C | 62% | 1020 hPa | - | - | - | - |
| 1777870110 | 7.78° C | 66% | 1020 hPa | - | - | - | - |
| 1777869209 | 7.78° C | 66% | 1020 hPa | - | - | - | - |
| 1777868310 | 7.22° C | 71% | 1020 hPa | - | - | - | - |
| 1777867409 | 7.22° C | 71% | 1020 hPa | - | - | - | - |
| 1777866510 | 6.11° C | 76% | 1020 hPa | - | - | - | - |
| 1777865609 | 6.11° C | 76% | 1020 hPa | - | - | - | - |
| 1777864709 | 6.11° C | 76% | 1019 hPa | - | - | - | - |
* Rain since midnight (hover to see other rain measurements)
** Current wind speed in m/s (hover to see current wind gust speed)